Time;durP1;ratioP1;P1;durP2;ratioP2;P2;SDS_P1;SDS_P2;PMS_P1;PMS_P2;Temp;Humidity;BMP_temperature;BMP_pressure;BME280_temperature;BME280_humidity;BME280_pressure;Samples;Min_cycle;Max_cycle;Signal;HPM_P1;HPM_P2
2022/05/03 00:00:03;;;;;;;1.55;1.45;;;7.30;99.90;;;;;;5032041;28;20210;-86
2022/05/03 00:02:45;;;;;;;1.85;1.75;;;7.30;99.90;;;;;;5030184;28;20195;-87
2022/05/03 00:05:23;;;;;;;2.97;1.50;;;7.20;99.90;;;;;;5023595;28;20215;-88
2022/05/03 00:07:57;;;;;;;3.13;2.17;;;7.10;99.90;;;;;;5017218;28;20207;-87
2022/05/03 00:10:32;;;;;;;3.75;2.25;;;7.10;99.90;;;;;;5019864;28;20253;-87
2022/05/03 00:13:06;;;;;;;2.10;1.90;;;7.10;99.90;;;;;;5031222;28;20285;-86
2022/05/03 00:15:37;;;;;;;2.97;2.08;;;7.00;99.90;;;;;;5030759;28;20210;-86
2022/05/03 00:18:08;;;;;;;3.78;2.30;;;7.00;99.90;;;;;;5024970;28;20210;-88
2022/05/03 00:20:36;;;;;;;2.10;1.90;;;7.00;99.90;;;;;;5024159;28;20230;-87
2022/05/03 00:23:04;;;;;;;2.50;2.30;;;6.90;99.90;;;;;;5018109;28;20289;-86
2022/05/03 00:25:33;;;;;;;2.90;2.67;;;6.90;99.90;;;;;;5011856;28;20264;-86
2022/05/03 00:28:03;;;;;;;2.30;2.13;;;6.90;99.90;;;;;;5011207;28;20206;-86
2022/05/03 00:30:32;;;;;;;2.75;2.58;;;6.80;99.90;;;;;;5010790;28;20223;-85
2022/05/03 00:33:02;;;;;;;5.93;2.65;;;6.80;99.90;;;;;;5012123;28;20454;-85
2022/05/03 00:35:30;;;;;;;5.30;2.85;;;6.70;99.90;;;;;;5011696;28;20195;-86
2022/05/03 00:37:58;;;;;;;3.45;2.80;;;6.70;99.90;;;;;;5011853;28;20392;-87
2022/05/03 00:40:26;;;;;;;4.15;3.33;;;6.70;99.90;;;;;;5011716;28;20222;-86
2022/05/03 00:43:09;;;;;;;3.50;3.20;;;6.70;99.90;;;;;;5012576;28;20202;-86
2022/05/03 00:45:45;;;;;;;3.00;2.80;;;6.70;99.90;;;;;;5010518;28;20261;-85
2022/05/03 00:48:29;;;;;;;3.08;2.88;;;6.70;99.90;;;;;;5008849;28;20203;-86
2022/05/03 00:51:04;;;;;;;2.97;2.78;;;6.70;99.90;;;;;;5009886;28;20229;-87
2022/05/03 00:53:34;;;;;;;3.00;2.80;;;6.60;99.90;;;;;;5010984;28;20218;-85
2022/05/03 00:56:23;;;;;;;4.15;3.25;;;6.60;99.90;;;;;;5012819;28;20207;-87
2022/05/03 00:59:01;;;;;;;3.45;3.15;;;6.60;99.90;;;;;;5011813;28;20190;-85
2022/05/03 01:01:41;;;;;;;3.30;2.95;;;6.60;99.90;;;;;;5013009;28;20288;-87
2022/05/03 01:04:20;;;;;;;2.90;2.67;;;6.60;99.90;;;;;;5012805;28;20774;-85
2022/05/03 01:06:56;;;;;;;3.72;3.08;;;6.60;99.90;;;;;;5015785;28;20213;-84
2022/05/03 01:09:35;;;;;;;3.58;2.90;;;6.60;99.90;;;;;;5017126;28;20218;-86
2022/05/03 01:12:17;;;;;;;3.30;3.00;;;6.70;99.90;;;;;;5011017;28;20213;-84
2022/05/03 01:15:06;;;;;;;2.97;2.83;;;6.60;99.90;;;;;;5010918;28;20235;-85
2022/05/03 01:17:43;;;;;;;2.92;2.72;;;6.60;99.90;;;;;;5010939;28;20233;-85
2022/05/03 01:20:14;;;;;;;3.15;2.90;;;6.70;99.90;;;;;;5010398;28;20699;-85
2022/05/03 01:23:20;;;;;;;5.57;2.92;;;6.60;99.90;;;;;;5018652;28;20203;-86
2022/05/03 01:26:21;;;;;;;5.10;3.58;;;6.70;99.90;;;;;;5028640;28;20207;-84
2022/05/03 01:29:16;;;;;;;3.53;3.08;;;6.70;99.90;;;;;;5028188;28;20253;-85
2022/05/03 01:31:44;;;;;;;4.28;3.88;;;6.60;99.90;;;;;;5028274;28;20199;-85
2022/05/03 01:34:13;;;;;;;4.43;3.50;;;6.60;99.90;;;;;;5020477;28;20192;-85
2022/05/03 01:36:54;;;;;;;3.72;3.40;;;6.60;99.90;;;;;;5010887;28;20213;-83
2022/05/03 01:39:37;;;;;;;5.25;4.05;;;6.60;99.90;;;;;;5010230;28;20239;-84
2022/05/03 01:42:11;;;;;;;5.72;4.63;;;6.60;99.90;;;;;;5010922;28;20238;-84
2022/05/03 01:44:45;;;;;;;4.85;4.45;;;6.60;99.90;;;;;;5009860;28;20199;-86
2022/05/03 01:47:25;;;;;;;5.35;4.10;;;6.60;99.90;;;;;;5010104;28;20199;-84
2022/05/03 01:50:19;;;;;;;4.90;4.45;;;6.50;99.90;;;;;;5010028;28;20222;-87
2022/05/03 01:53:19;;;;;;;6.88;4.10;;;6.60;99.90;;;;;;5009796;28;20929;-84
2022/05/03 01:56:28;;;;;;;8.40;5.05;;;6.50;99.90;;;;;;4929701;29;20477;-84
2022/05/03 01:59:28;;;;;;;6.22;4.65;;;6.50;99.90;;;;;;5009847;28;20309;-84
2022/05/03 02:01:59;;;;;;;5.03;4.13;;;6.50;99.90;;;;;;5009699;28;20201;-83
2022/05/03 02:04:48;;;;;;;4.38;3.97;;;6.50;99.90;;;;;;5009986;28;20200;-85
2022/05/03 02:07:29;;;;;;;4.78;4.38;;;6.50;99.90;;;;;;5010294;28;20802;-85
2022/05/03 02:10:05;;;;;;;5.20;4.43;;;6.40;99.90;;;;;;5012521;28;20231;-86
2022/05/03 02:12:34;;;;;;;6.70;5.10;;;6.50;99.90;;;;;;5033075;28;20186;-85
2022/05/03 02:15:05;;;;;;;4.95;4.55;;;6.40;99.90;;;;;;5011522;28;20545;-84
2022/05/03 02:17:54;;;;;;;7.18;5.05;;;6.40;99.90;;;;;;5008305;28;20207;-84
2022/05/03 02:20:42;;;;;;;6.68;4.63;;;6.40;99.90;;;;;;5009739;28;20219;-85
2022/05/03 02:23:29;;;;;;;7.70;4.18;;;6.40;99.90;;;;;;5009019;28;20799;-84
2022/05/03 02:26:13;;;;;;;4.95;4.43;;;6.40;99.90;;;;;;5008321;28;20766;-87
2022/05/03 02:28:45;;;;;;;5.68;4.88;;;6.40;99.90;;;;;;5008318;28;20207;-86
2022/05/03 02:31:15;;;;;;;6.03;5.43;;;6.30;99.90;;;;;;5007421;28;20310;-87
2022/05/03 02:33:50;;;;;;;4.93;4.10;;;6.30;99.90;;;;;;5007675;28;20203;-86
2022/05/03 02:36:24;;;;;;;6.10;4.90;;;6.30;99.90;;;;;;5007365;28;20225;-86
2022/05/03 02:39:02;;;;;;;8.85;5.10;;;6.40;99.90;;;;;;5005890;28;20213;-84
2022/05/03 02:41:33;;;;;;;6.32;4.70;;;6.30;99.90;;;;;;5007079;28;20198;-85
2022/05/03 02:44:03;;;;;;;7.03;5.20;;;6.30;99.90;;;;;;5006411;28;20199;-85
2022/05/03 02:46:52;;;;;;;7.03;5.05;;;6.30;99.90;;;;;;5006811;28;20231;-85
2022/05/03 02:49:35;;;;;;;7.75;5.13;;;6.30;99.90;;;;;;5007203;28;20190;-85
2022/05/03 02:52:14;;;;;;;8.80;6.35;;;6.40;99.90;;;;;;5006537;28;20766;-85
2022/05/03 02:54:56;;;;;;;11.15;6.10;;;6.30;99.90;;;;;;5006780;28;20269;-85
2022/05/03 02:57:31;;;;;;;7.65;5.25;;;6.30;99.90;;;;;;5006203;28;20195;-85
2022/05/03 03:03:06;;;;;;;6.30;5.70;;;6.40;99.90;;;;;;4977983;28;20211;-86
2022/05/03 03:05:42;;;;;;;7.40;5.53;;;6.40;99.90;;;;;;5007928;28;20199;-88
2022/05/03 03:08:12;;;;;;;13.10;6.10;;;6.40;99.90;;;;;;5006501;28;20222;-87
2022/05/03 03:10:48;;;;;;;6.35;5.40;;;6.40;99.90;;;;;;5007340;28;20223;-87
2022/05/03 03:13:34;;;;;;;9.77;5.80;;;6.40;99.90;;;;;;5008653;28;20728;-87
2022/05/03 03:16:01;;;;;;;7.07;5.53;;;6.40;99.90;;;;;;5012760;28;20266;-86
2022/05/03 03:18:34;;;;;;;9.70;6.43;;;6.40;99.90;;;;;;5008026;28;20286;-86
2022/05/03 03:21:06;;;;;;;5.88;5.28;;;6.40;99.90;;;;;;5007750;28;20306;-86
2022/05/03 03:23:39;;;;;;;7.95;5.93;;;6.40;99.90;;;;;;5009509;28;20203;-88
2022/05/03 03:26:09;;;;;;;7.75;6.10;;;6.40;99.90;;;;;;5010399;28;20819;-86
2022/05/03 03:28:38;;;;;;;6.93;5.28;;;6.40;99.90;;;;;;5008361;28;20218;-85
2022/05/03 03:31:07;;;;;;;10.30;6.35;;;6.40;99.90;;;;;;5007498;28;20305;-85
2022/05/03 03:33:38;;;;;;;8.80;7.85;;;6.50;99.90;;;;;;5007036;28;20679;-86
2022/05/03 03:36:09;;;;;;;9.32;7.32;;;6.50;99.90;;;;;;5007174;28;20203;-85
2022/05/03 03:38:40;;;;;;;11.85;7.63;;;6.50;99.90;;;;;;5008653;28;20282;-88
2022/05/03 03:41:09;;;;;;;8.18;7.00;;;6.60;99.90;;;;;;5010243;28;20862;-89
2022/05/03 03:43:38;;;;;;;9.82;7.97;;;6.60;99.90;;;;;;5010994;28;20213;-87
2022/05/03 03:46:06;;;;;;;8.30;7.32;;;6.70;99.90;;;;;;5011275;28;20222;-86
2022/05/03 03:48:34;;;;;;;11.70;7.72;;;6.70;99.90;;;;;;5010581;28;20209;-86
2022/05/03 03:51:04;;;;;;;10.82;7.90;;;6.80;99.90;;;;;;5009310;28;20222;-86
2022/05/03 03:53:35;;;;;;;12.73;9.30;;;6.90;99.90;;;;;;5018992;28;20290;-86
2022/05/03 03:56:03;;;;;;;13.70;8.40;;;7.10;99.90;;;;;;5006648;28;20679;-86
2022/05/03 03:58:32;;;;;;;11.20;8.90;;;7.10;99.90;;;;;;5006592;28;20195;-86
2022/05/03 04:00:59;;;;;;;8.57;7.68;;;7.10;99.90;;;;;;5007403;28;20219;-85
2022/05/03 04:03:28;;;;;;;10.98;7.60;;;7.10;99.90;;;;;;5008334;28;20199;-85
2022/05/03 04:05:56;;;;;;;8.63;6.60;;;7.20;99.90;;;;;;5008827;28;20302;-86
2022/05/03 04:08:27;;;;;;;10.20;8.30;;;7.20;99.90;;;;;;5009148;28;20208;-86
2022/05/03 04:11:13;;;;;;;8.82;7.53;;;7.40;99.90;;;;;;5008663;28;20223;-87
2022/05/03 04:13:43;;;;;;;10.43;7.75;;;7.50;99.90;;;;;;5006842;28;21185;-84
2022/05/03 04:16:11;;;;;;;8.95;6.95;;;7.50;99.90;;;;;;5004190;28;20235;-88
2022/05/03 04:18:48;;;;;;;9.07;7.35;;;7.70;99.90;;;;;;5008837;28;20360;-90
2022/05/03 04:21:17;;;;;;;12.27;7.70;;;7.80;99.90;;;;;;5013346;28;20241;-88
2022/05/03 04:23:46;;;;;;;10.25;8.30;;;7.90;99.90;;;;;;5032811;28;20298;-90
2022/05/03 04:26:15;;;;;;;8.70;7.45;;;8.00;99.90;;;;;;5019202;28;20214;-88
2022/05/03 04:28:44;;;;;;;8.05;7.18;;;8.20;99.90;;;;;;5012853;28;20203;-87
2022/05/03 04:31:11;;;;;;;9.10;7.80;;;8.20;99.90;;;;;;5013781;28;20412;-89
2022/05/03 04:33:40;;;;;;;11.93;8.65;;;8.30;99.90;;;;;;5014450;28;20739;-91
2022/05/03 04:36:32;;;;;;;10.52;8.10;;;8.40;99.90;;;;;;5014796;28;20207;-89
2022/05/03 04:39:04;;;;;;;8.63;7.03;;;8.50;99.90;;;;;;5004729;28;20254;-90
2022/05/03 04:41:39;;;;;;;10.13;7.78;;;8.60;99.90;;;;;;5013899;28;20790;-88
2022/05/03 04:44:08;;;;;;;12.02;8.85;;;8.70;99.90;;;;;;5014109;28;20754;-90
2022/05/03 04:46:36;;;;;;;12.63;7.38;;;8.90;99.90;;;;;;5015474;28;20798;-89
2022/05/03 04:49:04;;;;;;;10.13;8.05;;;9.00;99.90;;;;;;5014309;28;20206;-89
2022/05/03 04:51:45;;;;;;;11.07;7.93;;;9.10;99.90;;;;;;5025161;28;20218;-89
2022/05/03 04:54:14;;;;;;;10.25;8.85;;;9.20;99.90;;;;;;5029173;28;20179;-89
2022/05/03 04:56:50;;;;;;;10.05;8.38;;;9.40;99.90;;;;;;5025733;28;20249;-87
2022/05/03 04:59:18;;;;;;;10.13;8.70;;;9.40;99.90;;;;;;5013779;28;20217;-84
2022/05/03 05:01:46;;;;;;;9.65;8.65;;;9.60;99.90;;;;;;5013247;28;20262;-89
2022/05/03 05:04:15;;;;;;;12.95;9.07;;;9.70;99.90;;;;;;5010868;28;20784;-89
2022/05/03 05:06:43;;;;;;;14.02;8.55;;;9.70;99.90;;;;;;5015338;28;20223;-87
2022/05/03 05:09:11;;;;;;;10.27;8.07;;;9.80;99.90;;;;;;5014679;28;20493;-85
2022/05/03 05:11:39;;;;;;;14.00;7.18;;;9.80;99.90;;;;;;5013833;28;20508;-88
2022/05/03 05:14:08;;;;;;;12.48;9.10;;;9.90;99.90;;;;;;5013863;28;20203;-86
2022/05/03 05:16:37;;;;;;;9.73;8.50;;;10.00;99.90;;;;;;5012190;28;20218;-87
2022/05/03 05:19:08;;;;;;;11.30;9.35;;;10.10;99.90;;;;;;5014221;28;20838;-88
2022/05/03 05:21:36;;;;;;;13.32;9.52;;;10.10;99.90;;;;;;5013192;28;20318;-86
2022/05/03 05:24:10;;;;;;;12.20;8.80;;;10.10;99.90;;;;;;5019315;28;20726;-87
2022/05/03 05:26:41;;;;;;;10.77;8.77;;;10.10;99.90;;;;;;5022126;28;20203;-85
2022/05/03 05:29:10;;;;;;;15.45;8.55;;;10.10;99.90;;;;;;5026649;28;20241;-89
2022/05/03 05:31:41;;;;;;;9.68;8.68;;;10.10;99.90;;;;;;5018264;28;20227;-87
2022/05/03 05:34:11;;;;;;;10.90;7.65;;;10.20;99.90;;;;;;5019047;28;20271;-87
2022/05/03 05:36:40;;;;;;;13.00;9.10;;;10.30;99.90;;;;;;5021403;28;20226;-86
2022/05/03 05:39:08;;;;;;;10.95;9.40;;;10.40;99.90;;;;;;5022776;28;20227;-89
2022/05/03 05:41:36;;;;;;;13.73;8.48;;;10.40;99.90;;;;;;5017960;28;20210;-89
2022/05/03 05:44:05;;;;;;;11.73;9.10;;;10.40;99.90;;;;;;5006622;28;20227;-88
2022/05/03 05:46:34;;;;;;;11.77;10.02;;;10.50;99.90;;;;;;4995032;28;20210;-87
2022/05/03 05:49:04;;;;;;;13.45;9.85;;;10.60;99.90;;;;;;4991392;28;20472;-86
2022/05/03 05:51:31;;;;;;;11.23;9.05;;;10.50;99.90;;;;;;4992053;28;20263;-88
2022/05/03 05:53:59;;;;;;;12.18;8.05;;;10.60;99.90;;;;;;4991732;28;20200;-88
2022/05/03 05:56:27;;;;;;;13.75;9.55;;;10.60;99.90;;;;;;4993317;28;20183;-87
2022/05/03 05:58:55;;;;;;;13.68;10.50;;;10.70;99.90;;;;;;4996635;28;20291;-88
2022/05/03 06:01:26;;;;;;;14.30;9.65;;;10.70;99.90;;;;;;4995278;28;20294;-88
2022/05/03 06:03:56;;;;;;;14.10;11.07;;;10.70;99.90;;;;;;4994921;28;20207;-89
2022/05/03 06:06:24;;;;;;;14.18;10.82;;;10.70;99.90;;;;;;4993683;28;20295;-88
2022/05/03 06:08:52;;;;;;;10.65;9.00;;;10.80;99.90;;;;;;4991008;28;20278;-83
2022/05/03 06:11:19;;;;;;;11.30;9.95;;;10.90;99.90;;;;;;4991326;28;20227;-84
2022/05/03 06:13:48;;;;;;;10.93;9.52;;;10.90;99.90;;;;;;4991331;28;20272;-81
2022/05/03 06:16:16;;;;;;;13.27;10.90;;;10.90;99.90;;;;;;4998984;28;20192;-85
2022/05/03 06:18:44;;;;;;;15.77;12.05;;;11.00;99.90;;;;;;5003010;28;20204;-85
2022/05/03 06:21:14;;;;;;;17.88;11.95;;;11.00;99.90;;;;;;5000307;28;20237;-84
2022/05/03 06:23:42;;;;;;;13.30;11.57;;;11.00;99.90;;;;;;5006513;28;20420;-85
2022/05/03 06:26:10;;;;;;;16.30;12.90;;;11.00;99.90;;;;;;5005366;28;20290;-85
2022/05/03 06:28:45;;;;;;;17.27;12.53;;;11.00;99.90;;;;;;5001596;28;20271;-88
2022/05/03 06:31:13;;;;;;;13.65;11.77;;;11.00;99.90;;;;;;5007642;28;20469;-84
2022/05/03 06:33:41;;;;;;;15.30;12.75;;;11.00;99.90;;;;;;5002634;28;20259;-86
2022/05/03 06:36:15;;;;;;;21.45;13.70;;;11.00;99.90;;;;;;4993749;28;20238;-86
2022/05/03 06:38:42;;;;;;;18.15;14.43;;;11.00;99.90;;;;;;4994730;28;20266;-86
2022/05/03 06:41:12;;;;;;;20.20;13.23;;;11.10;99.90;;;;;;4992220;28;20234;-85
2022/05/03 06:43:42;;;;;;;18.87;14.27;;;11.10;99.90;;;;;;4992194;28;20176;-83
2022/05/03 06:46:10;;;;;;;16.65;13.63;;;11.20;99.90;;;;;;4993905;28;21041;-84
2022/05/03 06:48:39;;;;;;;17.80;12.33;;;11.10;99.90;;;;;;5010381;28;20233;-84
2022/05/03 06:51:07;;;;;;;17.40;13.00;;;11.10;99.90;;;;;;5009404;28;20450;-84
2022/05/03 06:53:36;;;;;;;16.00;13.93;;;11.20;99.90;;;;;;4997204;28;20251;-86
2022/05/03 06:56:10;;;;;;;20.30;13.80;;;11.10;99.90;;;;;;4989834;28;21094;-84
2022/05/03 06:58:44;;;;;;;29.97;15.03;;;11.10;99.90;;;;;;4989496;28;20215;-84
2022/05/03 07:01:14;;;;;;;19.87;15.00;;;11.10;99.90;;;;;;4989017;28;20471;-86
2022/05/03 07:03:43;;;;;;;18.52;14.60;;;11.00;99.90;;;;;;4989184;28;20450;-83
2022/05/03 07:06:11;;;;;;;21.48;14.18;;;11.00;99.90;;;;;;4993985;28;20677;-81
2022/05/03 07:08:41;;;;;;;22.13;15.50;;;11.00;99.90;;;;;;4988948;28;20227;-84
2022/05/03 07:11:09;;;;;;;21.80;15.15;;;11.00;99.90;;;;;;4998091;28;21035;-83
2022/05/03 07:13:37;;;;;;;20.33;14.70;;;11.00;99.90;;;;;;5007619;28;20183;-83
2022/05/03 07:16:06;;;;;;;18.15;14.48;;;11.10;99.90;;;;;;5007031;28;20450;-83
2022/05/03 07:24:07;;;;;;;21.80;15.27;;;11.20;99.90;;;;;;5008117;28;20183;-84
2022/05/03 07:26:35;;;;;;;20.67;14.55;;;11.30;99.90;;;;;;5008390;28;20480;-83
2022/05/03 07:29:05;;;;;;;19.13;14.00;;;11.40;99.90;;;;;;5008256;28;20235;-84
2022/05/03 07:31:35;;;;;;;19.60;13.83;;;11.60;99.90;;;;;;5001633;28;20527;-83
2022/05/03 07:34:03;;;;;;;23.67;15.33;;;11.70;99.90;;;;;;5012569;28;20445;-82
2022/05/03 07:36:31;;;;;;;19.37;13.60;;;11.70;99.90;;;;;;5027913;28;20426;-83
2022/05/03 07:38:59;;;;;;;14.53;12.37;;;11.80;99.90;;;;;;5010801;28;20488;-84
2022/05/03 07:41:28;;;;;;;21.50;12.50;;;11.80;99.90;;;;;;5001957;28;20525;-84
2022/05/03 07:43:56;;;;;;;18.90;13.53;;;11.80;99.90;;;;;;4993197;28;20439;-84
2022/05/03 07:46:24;;;;;;;22.07;15.10;;;11.90;99.90;;;;;;4992563;28;20457;-83
2022/05/03 07:48:52;;;;;;;23.03;14.10;;;12.00;99.90;;;;;;4992639;28;20983;-83
2022/05/03 07:51:20;;;;;;;16.83;13.53;;;12.00;99.90;;;;;;4992370;28;20467;-84
2022/05/03 07:53:48;;;;;;;16.83;13.13;;;12.00;99.90;;;;;;4998742;28;20462;-84
2022/05/03 07:56:16;;;;;;;17.37;12.53;;;12.00;99.90;;;;;;5008795;28;20438;-84
2022/05/03 07:58:46;;;;;;;15.30;12.57;;;11.90;99.90;;;;;;5008545;28;20521;-83
2022/05/03 08:01:14;;;;;;;17.10;12.40;;;11.90;99.90;;;;;;5009329;28;20565;-83
2022/05/03 08:03:42;;;;;;;20.90;14.47;;;11.90;99.90;;;;;;4991735;28;20965;-84
2022/05/03 08:06:09;;;;;;;19.17;12.30;;;11.90;99.90;;;;;;5006557;28;20450;-84
2022/05/03 08:08:37;;;;;;;17.07;12.87;;;11.70;99.90;;;;;;5005287;28;20223;-84
2022/05/03 08:11:05;;;;;;;17.00;11.70;;;11.80;99.90;;;;;;4989936;28;20506;-84
2022/05/03 08:13:33;;;;;;;17.17;11.90;;;11.80;99.90;;;;;;4990827;28;21208;-84
2022/05/03 08:16:04;;;;;;;15.93;13.10;;;11.90;99.90;;;;;;5008508;28;20457;-84
2022/05/03 08:18:33;;;;;;;20.73;12.33;;;12.00;99.90;;;;;;5011077;28;20430;-83
2022/05/03 08:21:01;;;;;;;15.97;11.93;;;12.10;99.90;;;;;;5012987;28;20453;-83
2022/05/03 08:23:29;;;;;;;17.53;12.13;;;12.20;99.90;;;;;;5004583;28;20473;-83
2022/05/03 08:25:58;;;;;;;16.90;13.60;;;12.30;99.90;;;;;;5006507;28;20442;-84
2022/05/03 08:28:26;;;;;;;19.33;13.67;;;12.40;99.90;;;;;;5010008;28;20485;-84
2022/05/03 08:30:54;;;;;;;16.07;12.33;;;12.40;99.90;;;;;;5012760;28;20528;-83
2022/05/03 08:33:24;;;;;;;17.43;13.20;;;12.30;99.90;;;;;;4996931;28;20530;-84
2022/05/03 08:35:52;;;;;;;16.23;11.93;;;12.30;99.90;;;;;;5009945;28;21106;-84
2022/05/03 08:43:58;;;;;;;17.20;12.30;;;12.20;99.90;;;;;;5015510;28;20506;-86
2022/05/03 08:46:26;;;;;;;19.23;12.90;;;12.30;99.90;;;;;;5014159;28;20953;-84
2022/05/03 08:49:04;;;;;;;25.27;12.23;;;12.40;99.90;;;;;;5012341;28;20481;-84
2022/05/03 08:51:33;;;;;;;17.27;12.30;;;12.50;99.90;;;;;;5012137;28;21075;-85
2022/05/03 08:54:03;;;;;;;14.30;11.30;;;12.60;99.90;;;;;;4999976;28;21116;-85
2022/05/03 08:56:31;;;;;;;14.80;11.10;;;12.80;99.90;;;;;;5011054;28;20454;-85
2022/05/03 08:58:59;;;;;;;18.07;10.90;;;12.90;99.90;;;;;;5015629;28;20422;-85
2022/05/03 09:01:27;;;;;;;15.47;9.90;;;13.00;99.90;;;;;;5014349;28;20576;-86
2022/05/03 09:03:57;;;;;;;12.43;9.93;;;13.20;99.90;;;;;;5014604;28;20441;-85
2022/05/03 09:06:41;;;;;;;12.30;8.90;;;13.20;99.90;;;;;;5010834;28;21157;-83
2022/05/03 09:09:10;;;;;;;9.47;8.13;;;13.10;99.90;;;;;;5009506;28;20494;-82
2022/05/03 09:11:45;;;;;;;13.40;7.47;;;13.20;99.90;;;;;;5009499;28;20461;-84
2022/05/03 09:14:13;;;;;;;10.30;6.37;;;13.10;99.90;;;;;;5010296;28;21098;-85
2022/05/03 09:16:48;;;;;;;13.80;6.93;;;13.00;99.90;;;;;;5008905;28;20442;-85
2022/05/03 09:19:25;;;;;;;9.70;5.83;;;13.20;99.90;;;;;;5011677;28;20929;-85
2022/05/03 09:24:53;;;;;;;10.70;6.30;;;13.60;99.90;;;;;;5013786;28;20453;-84
2022/05/03 09:27:22;;;;;;;9.47;5.90;;;13.90;99.90;;;;;;5018572;28;20502;-84
2022/05/03 09:30:00;;;;;;;7.67;6.30;;;14.00;99.90;;;;;;5019470;28;21083;-84
2022/05/03 09:32:40;;;;;;;11.13;7.07;;;14.20;99.90;;;;;;5017416;28;20438;-84
2022/05/03 09:35:32;;;;;;;8.90;6.33;;;14.30;99.90;;;;;;5011197;28;20444;-85
2022/05/03 09:38:03;;;;;;;11.10;6.20;;;14.20;99.90;;;;;;5012397;28;20458;-87
2022/05/03 09:40:36;;;;;;;7.87;6.73;;;14.10;99.90;;;;;;5014320;28;20511;-86
2022/05/03 09:43:06;;;;;;;6.87;6.17;;;14.10;99.90;;;;;;5022275;28;20456;-85
2022/05/03 09:45:39;;;;;;;11.40;6.80;;;14.10;99.90;;;;;;5027291;28;20489;-84
2022/05/03 09:48:08;;;;;;;8.60;6.57;;;14.20;99.90;;;;;;5016176;28;20454;-87
2022/05/03 09:50:43;;;;;;;8.00;5.50;;;14.20;99.90;;;;;;5018167;28;21061;-87
2022/05/03 09:53:17;;;;;;;13.30;6.33;;;14.20;99.90;;;;;;5016648;28;20421;-85
2022/05/03 09:55:48;;;;;;;10.93;5.83;;;14.30;99.90;;;;;;5015434;28;20466;-86
2022/05/03 09:58:18;;;;;;;9.90;5.33;;;14.40;99.90;;;;;;5015879;28;20834;-87
2022/05/03 10:00:48;;;;;;;7.43;3.97;;;14.30;99.90;;;;;;5016014;28;20468;-86
2022/05/03 10:03:21;;;;;;;10.83;4.80;;;14.40;99.90;;;;;;5014570;28;20442;-87
2022/05/03 10:05:51;;;;;;;4.57;4.17;;;14.40;99.90;;;;;;5014882;28;20490;-82
2022/05/03 10:08:22;;;;;;;7.50;3.53;;;14.40;99.90;;;;;;5014420;28;20439;-86
2022/05/03 10:10:57;;;;;;;7.77;3.60;;;14.50;99.90;;;;;;5014264;28;20454;-86
2022/05/03 10:13:27;;;;;;;6.63;3.40;;;14.60;99.90;;;;;;4994635;28;20418;-84
2022/05/03 10:21:39;;;;;;;2.70;2.17;;;14.70;99.90;;;;;;5011694;28;20454;-83
2022/05/03 10:24:08;;;;;;;4.93;3.00;;;14.70;99.90;;;;;;5008868;28;20446;-84
2022/05/03 10:27:01;;;;;;;4.73;3.27;;;14.80;99.90;;;;;;4992340;28;20479;-84
2022/05/03 10:30:02;;;;;;;5.67;2.70;;;14.70;99.90;;;;;;4989883;28;20483;-85
2022/05/03 10:32:30;;;;;;;8.37;3.10;;;14.70;99.90;;;;;;4994893;28;21177;-88
2022/05/03 10:34:59;;;;;;;6.30;2.40;;;14.80;99.90;;;;;;4997309;28;20464;-89
2022/05/03 10:38:05;;;;;;;2.57;2.37;;;14.80;99.90;;;;;;4998331;28;20538;-86
2022/05/03 10:40:40;;;;;;;18.13;3.70;;;15.00;99.90;;;;;;4994339;28;20500;-89
2022/05/03 10:43:14;;;;;;;3.80;3.50;;;15.10;99.90;;;;;;4995908;28;20455;-89
2022/05/03 10:45:56;;;;;;;6.17;2.63;;;15.20;99.90;;;;;;4997878;28;20441;-88
2022/05/03 10:48:34;;;;;;;7.77;2.67;;;15.20;99.90;;;;;;5021686;28;20446;-86
2022/05/03 10:51:06;;;;;;;3.33;2.40;;;15.00;99.90;;;;;;5014803;28;20528;-87
2022/05/03 10:53:41;;;;;;;2.87;2.27;;;14.90;99.90;;;;;;5014208;28;20470;-86
2022/05/03 10:56:16;;;;;;;5.53;2.37;;;14.80;99.90;;;;;;5014358;28;20771;-89
2022/05/03 10:59:02;;;;;;;6.67;2.63;;;14.80;99.90;;;;;;5012366;28;20674;-86
2022/05/03 11:01:30;;;;;;;8.37;2.93;;;14.80;99.90;;;;;;5011702;28;20449;-87
2022/05/03 11:04:12;;;;;;;4.57;2.10;;;14.90;99.90;;;;;;5012339;28;21065;-88
2022/05/03 11:06:49;;;;;;;4.83;2.50;;;14.60;99.90;;;;;;5009026;28;20494;-86
2022/05/03 11:09:39;;;;;;;4.40;2.37;;;14.50;99.90;;;;;;4993415;28;21031;-87
2022/05/03 11:12:08;;;;;;;5.03;1.87;;;14.30;99.90;;;;;;4988340;28;21110;-86
2022/05/03 11:14:51;;;;;;;3.10;2.23;;;14.40;99.90;;;;;;5007976;28;20565;-83
2022/05/03 11:17:19;;;;;;;8.97;2.50;;;14.50;99.90;;;;;;5013097;28;21031;-86
2022/05/03 11:19:53;;;;;;;4.67;2.47;;;14.60;99.90;;;;;;5012072;28;20532;-85
2022/05/03 11:22:25;;;;;;;2.50;2.20;;;14.60;99.90;;;;;;5011209;28;21009;-84
2022/05/03 11:25:04;;;;;;;3.37;1.90;;;14.50;99.90;;;;;;5010431;28;21174;-86
2022/05/03 11:27:34;;;;;;;4.03;2.17;;;14.40;99.90;;;;;;5009054;28;20446;-83
2022/05/03 11:30:07;;;;;;;4.00;1.90;;;14.20;99.90;;;;;;5009403;28;21176;-83
2022/05/03 11:32:40;;;;;;;7.67;1.80;;;14.00;99.90;;;;;;5009534;28;20801;-82
2022/05/03 11:35:12;;;;;;;7.33;1.90;;;13.90;99.90;;;;;;4991426;28;20541;-81
2022/05/03 11:37:50;;;;;;;6.10;2.73;;;14.10;99.90;;;;;;4994211;28;20516;-83
2022/05/03 11:40:21;;;;;;;10.20;1.80;;;14.30;99.90;;;;;;4995616;28;21158;-83
2022/05/03 11:42:51;;;;;;;6.73;2.53;;;14.30;99.90;;;;;;5008817;28;20451;-84
2022/05/03 11:45:19;;;;;;;6.33;2.87;;;14.20;99.90;;;;;;5002767;28;20458;-82
2022/05/03 11:47:51;;;;;;;8.87;2.60;;;14.10;99.90;;;;;;5004604;28;20601;-84
2022/05/03 11:56:00;;;;;;;11.33;2.67;;;13.90;99.90;;;;;;4989853;28;20431;-83
2022/05/03 11:58:33;;;;;;;5.50;2.67;;;14.00;99.90;;;;;;4990515;28;20439;-84
2022/05/03 12:01:02;;;;;;;6.80;2.10;;;14.10;99.90;;;;;;5006381;28;21103;-83
2022/05/03 12:03:45;;;;;;;4.00;2.47;;;14.20;99.90;;;;;;4989450;28;20931;-86
2022/05/03 12:06:15;;;;;;;4.53;2.43;;;14.40;99.90;;;;;;4989644;28;20529;-84
2022/05/03 12:08:45;;;;;;;5.77;2.47;;;14.40;99.90;;;;;;4993988;28;20955;-83
2022/05/03 12:11:22;;;;;;;6.53;2.37;;;14.60;99.90;;;;;;4994043;28;20559;-87
2022/05/03 12:13:51;;;;;;;6.53;2.90;;;14.70;99.90;;;;;;4993605;28;20415;-85
2022/05/03 12:16:27;;;;;;;7.10;2.23;;;14.70;99.90;;;;;;5014897;28;20505;-86
2022/05/03 12:18:57;;;;;;;2.97;2.47;;;14.70;99.90;;;;;;5014349;28;20457;-86
2022/05/03 12:21:30;;;;;;;3.97;2.10;;;14.60;99.90;;;;;;5013210;28;20450;-88
2022/05/03 12:24:03;;;;;;;5.00;2.03;;;14.60;99.90;;;;;;5017988;28;20438;-87
2022/05/03 12:26:37;;;;;;;4.30;2.57;;;14.80;99.90;;;;;;5013800;28;20450;-88
2022/05/03 12:29:08;;;;;;;6.43;2.23;;;15.00;99.90;;;;;;5014830;28;20510;-86
2022/05/03 12:31:38;;;;;;;4.30;2.20;;;15.20;99.90;;;;;;5010776;28;20501;-84
2022/05/03 12:34:11;;;;;;;6.07;2.40;;;15.40;99.90;;;;;;5014313;28;20434;-85
2022/05/03 12:36:41;;;;;;;6.67;2.67;;;15.40;99.90;;;;;;5015416;28;20517;-87
2022/05/03 12:39:30;;;;;;;4.73;2.03;;;15.30;99.90;;;;;;5017897;28;20458;-91
2022/05/03 12:42:02;;;;;;;5.27;2.50;;;15.30;99.90;;;;;;5016807;28;21023;-85
2022/05/03 12:44:51;;;;;;;4.00;2.70;;;15.20;99.90;;;;;;5011201;28;20918;-84
2022/05/03 12:47:22;;;;;;;4.20;1.80;;;15.00;99.90;;;;;;5012431;28;20454;-84
2022/05/03 12:49:51;;;;;;;8.00;2.80;;;14.80;99.90;;;;;;5012214;28;20818;-85
2022/05/03 12:52:20;;;;;;;5.73;2.30;;;14.80;99.90;;;;;;5010615;28;20438;-85
2022/05/03 12:54:52;;;;;;;6.73;2.03;;;14.70;99.90;;;;;;5008578;28;20527;-84
2022/05/03 13:00:05;;;;;;;5.63;2.37;;;14.80;99.90;;;;;;4981186;28;21111;-86
2022/05/03 13:02:33;;;;;;;11.73;4.13;;;14.90;99.90;;;;;;5012147;28;20505;-86
2022/05/03 13:05:01;;;;;;;7.10;2.03;;;14.90;99.90;;;;;;5009810;28;20460;-86
2022/05/03 13:07:30;;;;;;;10.13;3.40;;;14.90;99.90;;;;;;5009131;28;20446;-87
2022/05/03 13:09:58;;;;;;;12.03;3.00;;;14.80;99.90;;;;;;5008785;28;20736;-86
2022/05/03 13:12:26;;;;;;;6.50;1.80;;;14.70;99.90;;;;;;5011767;28;20469;-88
2022/05/03 13:14:55;;;;;;;6.90;2.70;;;14.60;99.90;;;;;;5010931;28;20450;-86
2022/05/03 13:17:25;;;;;;;6.50;2.07;;;14.60;99.90;;;;;;5013487;28;20457;-88
2022/05/03 13:19:53;;;;;;;8.07;2.20;;;14.50;99.90;;;;;;5013262;28;20493;-86
2022/05/03 13:22:23;;;;;;;4.43;2.43;;;14.40;99.90;;;;;;5013791;28;20446;-86
2022/05/03 13:24:51;;;;;;;7.77;1.90;;;14.40;99.90;;;;;;5012045;28;20508;-85
2022/05/03 13:27:19;;;;;;;3.97;2.17;;;14.30;99.90;;;;;;5011068;28;20454;-86
2022/05/03 13:29:53;;;;;;;3.83;2.10;;;14.40;99.90;;;;;;5013728;28;20554;-87
2022/05/03 13:32:21;;;;;;;5.00;2.10;;;14.40;99.90;;;;;;5054120;23;20888;-85
2022/05/03 13:34:51;;;;;;;6.53;2.60;;;14.40;99.90;;;;;;5020225;28;20446;-85
2022/05/03 13:40:29;;;;;;;4.63;3.00;;;14.40;99.90;;;;;;5013773;28;20454;-84
2022/05/03 13:42:59;;;;;;;6.60;2.80;;;14.30;99.90;;;;;;5013099;28;20469;-85
2022/05/03 13:45:30;;;;;;;4.83;2.17;;;14.20;99.90;;;;;;5013173;28;20517;-87
2022/05/03 13:48:18;;;;;;;5.43;2.37;;;14.20;99.90;;;;;;5012757;28;20426;-86